sensor_id;sensor_type;location;lat;lon;timestamp;P1;durP1;ratioP1;P2;durP2;ratioP2
31808;SDS011;18379;48.208;-1.518;2023-09-19T00:01:21;50.00;;;46.67;;
31808;SDS011;18379;48.208;-1.518;2023-09-19T00:06:22;49.57;;;45.97;;
31808;SDS011;18379;48.208;-1.518;2023-09-19T00:11:26;49.60;;;46.33;;
31808;SDS011;18379;48.208;-1.518;2023-09-19T00:16:27;48.57;;;45.47;;
31808;SDS011;18379;48.208;-1.518;2023-09-19T00:21:27;49.33;;;45.77;;
31808;SDS011;18379;48.208;-1.518;2023-09-19T00:26:28;50.30;;;46.80;;
31808;SDS011;18379;48.208;-1.518;2023-09-19T00:31:30;48.80;;;45.40;;
31808;SDS011;18379;48.208;-1.518;2023-09-19T00:36:31;48.90;;;45.70;;
31808;SDS011;18379;48.208;-1.518;2023-09-19T00:41:34;49.73;;;46.33;;
31808;SDS011;18379;48.208;-1.518;2023-09-19T00:46:38;50.00;;;46.63;;
31808;SDS011;18379;48.208;-1.518;2023-09-19T00:51:39;48.90;;;45.57;;
31808;SDS011;18379;48.208;-1.518;2023-09-19T00:56:45;49.63;;;45.83;;
31808;SDS011;18379;48.208;-1.518;2023-09-19T01:01:46;48.70;;;45.30;;
31808;SDS011;18379;48.208;-1.518;2023-09-19T01:06:53;48.63;;;45.33;;
31808;SDS011;18379;48.208;-1.518;2023-09-19T01:11:55;49.40;;;45.90;;
31808;SDS011;18379;48.208;-1.518;2023-09-19T01:17:03;48.80;;;45.67;;
31808;SDS011;18379;48.208;-1.518;2023-09-19T01:22:38;48.80;;;45.23;;
31808;SDS011;18379;48.208;-1.518;2023-09-19T01:33:22;49.70;;;46.07;;
31808;SDS011;18379;48.208;-1.518;2023-09-19T01:38:24;48.77;;;45.50;;
31808;SDS011;18379;48.208;-1.518;2023-09-19T01:43:30;48.50;;;45.10;;
31808;SDS011;18379;48.208;-1.518;2023-09-19T01:54:04;50.17;;;46.03;;
31808;SDS011;18379;48.208;-1.518;2023-09-19T01:59:16;49.13;;;45.80;;
31808;SDS011;18379;48.208;-1.518;2023-09-19T02:04:21;49.23;;;45.40;;
31808;SDS011;18379;48.208;-1.518;2023-09-19T02:09:22;48.77;;;45.37;;
31808;SDS011;18379;48.208;-1.518;2023-09-19T02:14:23;50.23;;;46.23;;
31808;SDS011;18379;48.208;-1.518;2023-09-19T02:19:23;49.37;;;45.60;;
31808;SDS011;18379;48.208;-1.518;2023-09-19T02:24:24;49.63;;;45.97;;
31808;SDS011;18379;48.208;-1.518;2023-09-19T02:29:26;49.27;;;45.97;;
31808;SDS011;18379;48.208;-1.518;2023-09-19T02:34:29;49.50;;;45.67;;
31808;SDS011;18379;48.208;-1.518;2023-09-19T02:39:29;48.67;;;45.33;;
31808;SDS011;18379;48.208;-1.518;2023-09-19T02:44:30;50.67;;;46.53;;
31808;SDS011;18379;48.208;-1.518;2023-09-19T02:49:32;48.87;;;45.53;;
31808;SDS011;18379;48.208;-1.518;2023-09-19T02:54:33;49.70;;;45.17;;
31808;SDS011;18379;48.208;-1.518;2023-09-19T02:59:33;49.23;;;45.60;;
31808;SDS011;18379;48.208;-1.518;2023-09-19T03:04:37;48.60;;;45.17;;
31808;SDS011;18379;48.208;-1.518;2023-09-19T03:09:38;48.83;;;45.13;;
31808;SDS011;18379;48.208;-1.518;2023-09-19T03:14:38;48.07;;;44.77;;
31808;SDS011;18379;48.208;-1.518;2023-09-19T03:19:39;49.43;;;46.03;;
31808;SDS011;18379;48.208;-1.518;2023-09-19T03:24:40;48.63;;;45.43;;
31808;SDS011;18379;48.208;-1.518;2023-09-19T03:29:42;49.43;;;45.73;;
31808;SDS011;18379;48.208;-1.518;2023-09-19T03:34:43;48.73;;;45.40;;
31808;SDS011;18379;48.208;-1.518;2023-09-19T03:39:43;48.67;;;45.13;;
31808;SDS011;18379;48.208;-1.518;2023-09-19T03:44:44;49.33;;;45.63;;
31808;SDS011;18379;48.208;-1.518;2023-09-19T03:49:45;49.13;;;45.53;;
31808;SDS011;18379;48.208;-1.518;2023-09-19T03:54:45;49.47;;;45.80;;
31808;SDS011;18379;48.208;-1.518;2023-09-19T03:59:46;49.67;;;45.80;;
31808;SDS011;18379;48.208;-1.518;2023-09-19T04:04:50;49.13;;;45.70;;
31808;SDS011;18379;48.208;-1.518;2023-09-19T04:09:52;49.73;;;45.77;;
31808;SDS011;18379;48.208;-1.518;2023-09-19T04:14:57;49.97;;;45.80;;
31808;SDS011;18379;48.208;-1.518;2023-09-19T04:19:58;49.10;;;45.53;;
31808;SDS011;18379;48.208;-1.518;2023-09-19T04:24:59;49.60;;;45.43;;
31808;SDS011;18379;48.208;-1.518;2023-09-19T04:29:59;48.37;;;45.13;;
31808;SDS011;18379;48.208;-1.518;2023-09-19T04:35:10;48.73;;;45.17;;
31808;SDS011;18379;48.208;-1.518;2023-09-19T04:40:11;50.00;;;46.07;;
31808;SDS011;18379;48.208;-1.518;2023-09-19T04:45:17;49.23;;;45.60;;
31808;SDS011;18379;48.208;-1.518;2023-09-19T04:50:20;49.30;;;45.73;;
31808;SDS011;18379;48.208;-1.518;2023-09-19T04:55:28;48.50;;;44.77;;
31808;SDS011;18379;48.208;-1.518;2023-09-19T05:00:30;49.33;;;45.37;;
31808;SDS011;18379;48.208;-1.518;2023-09-19T05:05:35;49.50;;;45.27;;
31808;SDS011;18379;48.208;-1.518;2023-09-19T05:10:35;49.20;;;45.80;;
31808;SDS011;18379;48.208;-1.518;2023-09-19T05:15:39;49.37;;;45.73;;
31808;SDS011;18379;48.208;-1.518;2023-09-19T05:20:40;48.93;;;45.57;;
31808;SDS011;18379;48.208;-1.518;2023-09-19T05:25:40;49.07;;;45.37;;
31808;SDS011;18379;48.208;-1.518;2023-09-19T05:30:43;50.23;;;46.53;;
31808;SDS011;18379;48.208;-1.518;2023-09-19T05:35:44;49.47;;;45.97;;
31808;SDS011;18379;48.208;-1.518;2023-09-19T05:40:47;50.27;;;46.07;;
31808;SDS011;18379;48.208;-1.518;2023-09-19T05:45:48;49.00;;;45.50;;
31808;SDS011;18379;48.208;-1.518;2023-09-19T05:50:48;50.07;;;46.10;;
31808;SDS011;18379;48.208;-1.518;2023-09-19T05:55:49;49.47;;;45.40;;
31808;SDS011;18379;48.208;-1.518;2023-09-19T06:00:50;48.53;;;45.33;;
31808;SDS011;18379;48.208;-1.518;2023-09-19T06:05:52;48.10;;;44.67;;
31808;SDS011;18379;48.208;-1.518;2023-09-19T06:10:57;49.50;;;45.50;;
31808;SDS011;18379;48.208;-1.518;2023-09-19T06:15:57;49.33;;;45.73;;
31808;SDS011;18379;48.208;-1.518;2023-09-19T06:20:58;49.37;;;45.53;;
31808;SDS011;18379;48.208;-1.518;2023-09-19T06:25:59;48.87;;;45.40;;
31808;SDS011;18379;48.208;-1.518;2023-09-19T06:31:02;49.23;;;45.93;;
31808;SDS011;18379;48.208;-1.518;2023-09-19T06:36:03;49.20;;;45.67;;
31808;SDS011;18379;48.208;-1.518;2023-09-19T06:41:04;49.60;;;45.90;;
31808;SDS011;18379;48.208;-1.518;2023-09-19T06:46:07;50.13;;;46.23;;
31808;SDS011;18379;48.208;-1.518;2023-09-19T06:51:07;49.20;;;45.70;;
31808;SDS011;18379;48.208;-1.518;2023-09-19T06:56:08;49.33;;;45.70;;
31808;SDS011;18379;48.208;-1.518;2023-09-19T07:01:09;48.90;;;45.23;;
31808;SDS011;18379;48.208;-1.518;2023-09-19T07:06:09;50.23;;;46.43;;
31808;SDS011;18379;48.208;-1.518;2023-09-19T07:11:10;50.00;;;46.17;;
31808;SDS011;18379;48.208;-1.518;2023-09-19T07:16:12;49.27;;;45.80;;
31808;SDS011;18379;48.208;-1.518;2023-09-19T07:21:19;50.33;;;46.17;;
31808;SDS011;18379;48.208;-1.518;2023-09-19T07:26:20;51.37;;;47.23;;
31808;SDS011;18379;48.208;-1.518;2023-09-19T07:31:21;51.20;;;47.10;;
31808;SDS011;18379;48.208;-1.518;2023-09-19T07:36:22;50.87;;;47.07;;
31808;SDS011;18379;48.208;-1.518;2023-09-19T07:41:24;51.60;;;47.43;;
31808;SDS011;18379;48.208;-1.518;2023-09-19T07:46:25;51.47;;;47.50;;
31808;SDS011;18379;48.208;-1.518;2023-09-19T07:51:26;52.63;;;48.30;;
31808;SDS011;18379;48.208;-1.518;2023-09-19T07:56:27;51.73;;;48.07;;
31808;SDS011;18379;48.208;-1.518;2023-09-19T08:01:27;51.53;;;47.73;;
31808;SDS011;18379;48.208;-1.518;2023-09-19T08:06:28;51.10;;;47.60;;
31808;SDS011;18379;48.208;-1.518;2023-09-19T08:11:30;51.83;;;48.27;;
31808;SDS011;18379;48.208;-1.518;2023-09-19T08:16:31;51.63;;;47.73;;
31808;SDS011;18379;48.208;-1.518;2023-09-19T08:21:31;52.40;;;47.97;;
31808;SDS011;18379;48.208;-1.518;2023-09-19T08:26:32;52.17;;;48.20;;
31808;SDS011;18379;48.208;-1.518;2023-09-19T08:31:33;51.70;;;47.93;;
31808;SDS011;18379;48.208;-1.518;2023-09-19T08:36:34;51.93;;;48.13;;
31808;SDS011;18379;48.208;-1.518;2023-09-19T08:41:35;51.63;;;47.83;;
31808;SDS011;18379;48.208;-1.518;2023-09-19T08:46:35;52.10;;;48.33;;
31808;SDS011;18379;48.208;-1.518;2023-09-19T08:51:43;52.77;;;48.80;;
31808;SDS011;18379;48.208;-1.518;2023-09-19T08:56:49;52.43;;;48.47;;
31808;SDS011;18379;48.208;-1.518;2023-09-19T09:01:51;52.50;;;48.43;;
31808;SDS011;18379;48.208;-1.518;2023-09-19T09:06:54;52.43;;;48.80;;
31808;SDS011;18379;48.208;-1.518;2023-09-19T09:11:55;53.07;;;49.20;;
31808;SDS011;18379;48.208;-1.518;2023-09-19T09:16:58;53.63;;;49.53;;
31808;SDS011;18379;48.208;-1.518;2023-09-19T09:22:09;53.63;;;49.53;;
31808;SDS011;18379;48.208;-1.518;2023-09-19T09:27:10;53.40;;;49.20;;
31808;SDS011;18379;48.208;-1.518;2023-09-19T09:32:16;53.57;;;49.47;;
31808;SDS011;18379;48.208;-1.518;2023-09-19T09:37:22;53.47;;;49.57;;
31808;SDS011;18379;48.208;-1.518;2023-09-19T09:42:37;53.13;;;48.97;;
31808;SDS011;18379;48.208;-1.518;2023-09-19T09:47:41;53.37;;;49.60;;
31808;SDS011;18379;48.208;-1.518;2023-09-19T09:52:50;54.40;;;50.30;;
31808;SDS011;18379;48.208;-1.518;2023-09-19T09:57:58;54.23;;;50.10;;
31808;SDS011;18379;48.208;-1.518;2023-09-19T10:03:34;54.40;;;50.50;;
31808;SDS011;18379;48.208;-1.518;2023-09-19T10:08:39;54.17;;;50.17;;
31808;SDS011;18379;48.208;-1.518;2023-09-19T10:13:43;55.10;;;50.40;;
31808;SDS011;18379;48.208;-1.518;2023-09-19T10:18:47;55.33;;;50.73;;
31808;SDS011;18379;48.208;-1.518;2023-09-19T10:23:52;55.83;;;51.40;;
31808;SDS011;18379;48.208;-1.518;2023-09-19T10:28:57;55.23;;;50.93;;
31808;SDS011;18379;48.208;-1.518;2023-09-19T10:33:59;54.63;;;50.70;;
31808;SDS011;18379;48.208;-1.518;2023-09-19T10:39:04;54.97;;;50.73;;
31808;SDS011;18379;48.208;-1.518;2023-09-19T10:44:08;54.70;;;50.77;;
31808;SDS011;18379;48.208;-1.518;2023-09-19T10:49:09;54.77;;;50.77;;
31808;SDS011;18379;48.208;-1.518;2023-09-19T10:54:12;54.70;;;50.70;;
31808;SDS011;18379;48.208;-1.518;2023-09-19T10:59:16;56.63;;;52.10;;
31808;SDS011;18379;48.208;-1.518;2023-09-19T11:14:54;54.97;;;50.87;;
31808;SDS011;18379;48.208;-1.518;2023-09-19T11:25:56;54.70;;;50.33;;
31808;SDS011;18379;48.208;-1.518;2023-09-19T11:35:58;55.00;;;51.03;;
31808;SDS011;18379;48.208;-1.518;2023-09-19T11:41:36;55.47;;;51.20;;
31808;SDS011;18379;48.208;-1.518;2023-09-19T11:46:23;56.10;;;51.70;;
31808;SDS011;18379;48.208;-1.518;2023-09-19T11:51:24;56.20;;;51.87;;
31808;SDS011;18379;48.208;-1.518;2023-09-19T11:56:28;57.43;;;52.40;;
31808;SDS011;18379;48.208;-1.518;2023-09-19T12:01:30;56.93;;;52.27;;
31808;SDS011;18379;48.208;-1.518;2023-09-19T12:06:32;56.17;;;51.90;;
31808;SDS011;18379;48.208;-1.518;2023-09-19T12:11:40;55.53;;;51.47;;
31808;SDS011;18379;48.208;-1.518;2023-09-19T12:16:43;56.63;;;52.30;;
31808;SDS011;18379;48.208;-1.518;2023-09-19T12:21:59;56.43;;;52.33;;
31808;SDS011;18379;48.208;-1.518;2023-09-19T12:27:07;55.80;;;51.83;;
31808;SDS011;18379;48.208;-1.518;2023-09-19T12:32:09;56.50;;;52.27;;
31808;SDS011;18379;48.208;-1.518;2023-09-19T12:37:11;56.60;;;52.50;;
31808;SDS011;18379;48.208;-1.518;2023-09-19T12:42:15;55.87;;;51.57;;
31808;SDS011;18379;48.208;-1.518;2023-09-19T12:47:17;56.83;;;52.50;;
31808;SDS011;18379;48.208;-1.518;2023-09-19T12:52:24;55.33;;;51.53;;
31808;SDS011;18379;48.208;-1.518;2023-09-19T12:57:26;55.90;;;51.80;;
31808;SDS011;18379;48.208;-1.518;2023-09-19T13:02:27;56.63;;;52.37;;
31808;SDS011;18379;48.208;-1.518;2023-09-19T13:07:44;55.57;;;51.33;;
31808;SDS011;18379;48.208;-1.518;2023-09-19T13:12:49;55.50;;;51.47;;
31808;SDS011;18379;48.208;-1.518;2023-09-19T13:17:50;55.93;;;51.80;;
31808;SDS011;18379;48.208;-1.518;2023-09-19T13:22:51;55.70;;;51.60;;
31808;SDS011;18379;48.208;-1.518;2023-09-19T13:27:55;56.43;;;52.27;;
31808;SDS011;18379;48.208;-1.518;2023-09-19T13:38:09;56.50;;;52.37;;
31808;SDS011;18379;48.208;-1.518;2023-09-19T13:43:11;56.00;;;51.80;;
31808;SDS011;18379;48.208;-1.518;2023-09-19T13:48:12;56.00;;;51.70;;
31808;SDS011;18379;48.208;-1.518;2023-09-19T13:53:12;55.77;;;51.97;;
31808;SDS011;18379;48.208;-1.518;2023-09-19T13:58:13;56.37;;;52.13;;
31808;SDS011;18379;48.208;-1.518;2023-09-19T14:03:14;56.17;;;51.77;;
31808;SDS011;18379;48.208;-1.518;2023-09-19T14:08:15;56.73;;;52.23;;
31808;SDS011;18379;48.208;-1.518;2023-09-19T14:13:16;55.77;;;51.57;;
31808;SDS011;18379;48.208;-1.518;2023-09-19T14:18:16;57.13;;;52.57;;
31808;SDS011;18379;48.208;-1.518;2023-09-19T14:23:18;56.75;;;52.65;;
31808;SDS011;18379;48.208;-1.518;2023-09-19T14:28:19;56.60;;;52.10;;
31808;SDS011;18379;48.208;-1.518;2023-09-19T14:33:19;57.13;;;52.63;;
31808;SDS011;18379;48.208;-1.518;2023-09-19T14:38:20;57.07;;;52.43;;
31808;SDS011;18379;48.208;-1.518;2023-09-19T14:43:21;57.03;;;52.47;;
31808;SDS011;18379;48.208;-1.518;2023-09-19T14:48:21;55.80;;;51.70;;
31808;SDS011;18379;48.208;-1.518;2023-09-19T14:53:25;55.97;;;52.07;;
31808;SDS011;18379;48.208;-1.518;2023-09-19T14:58:27;55.63;;;51.60;;
31808;SDS011;18379;48.208;-1.518;2023-09-19T15:03:30;55.97;;;51.70;;
31808;SDS011;18379;48.208;-1.518;2023-09-19T15:08:32;57.73;;;53.27;;
31808;SDS011;18379;48.208;-1.518;2023-09-19T15:13:38;57.37;;;52.60;;
31808;SDS011;18379;48.208;-1.518;2023-09-19T15:18:43;56.03;;;52.17;;
31808;SDS011;18379;48.208;-1.518;2023-09-19T15:23:47;57.20;;;52.83;;
31808;SDS011;18379;48.208;-1.518;2023-09-19T15:28:48;56.67;;;52.43;;
31808;SDS011;18379;48.208;-1.518;2023-09-19T15:33:49;56.63;;;52.50;;
31808;SDS011;18379;48.208;-1.518;2023-09-19T15:43:57;56.13;;;51.80;;
31808;SDS011;18379;48.208;-1.518;2023-09-19T15:49:01;56.37;;;51.80;;
31808;SDS011;18379;48.208;-1.518;2023-09-19T15:54:06;56.63;;;52.20;;
31808;SDS011;18379;48.208;-1.518;2023-09-19T15:59:08;56.33;;;51.80;;
31808;SDS011;18379;48.208;-1.518;2023-09-19T16:04:12;56.17;;;51.57;;
31808;SDS011;18379;48.208;-1.518;2023-09-19T16:09:13;56.03;;;51.47;;
31808;SDS011;18379;48.208;-1.518;2023-09-19T16:14:14;56.03;;;51.90;;
31808;SDS011;18379;48.208;-1.518;2023-09-19T16:19:15;56.57;;;51.87;;
31808;SDS011;18379;48.208;-1.518;2023-09-19T16:24:16;56.03;;;51.47;;
31808;SDS011;18379;48.208;-1.518;2023-09-19T16:29:17;56.27;;;51.67;;
31808;SDS011;18379;48.208;-1.518;2023-09-19T16:34:21;57.50;;;52.73;;
31808;SDS011;18379;48.208;-1.518;2023-09-19T16:39:22;57.40;;;52.77;;
31808;SDS011;18379;48.208;-1.518;2023-09-19T16:44:22;57.40;;;52.77;;
31808;SDS011;18379;48.208;-1.518;2023-09-19T16:49:23;57.00;;;52.03;;
31808;SDS011;18379;48.208;-1.518;2023-09-19T16:54:25;56.77;;;52.00;;
31808;SDS011;18379;48.208;-1.518;2023-09-19T16:59:25;57.17;;;52.60;;
31808;SDS011;18379;48.208;-1.518;2023-09-19T17:04:26;57.30;;;52.50;;
31808;SDS011;18379;48.208;-1.518;2023-09-19T17:09:29;57.43;;;52.90;;
31808;SDS011;18379;48.208;-1.518;2023-09-19T17:14:32;56.83;;;52.40;;
31808;SDS011;18379;48.208;-1.518;2023-09-19T17:19:34;55.93;;;51.77;;
31808;SDS011;18379;48.208;-1.518;2023-09-19T17:24:34;56.37;;;51.73;;
31808;SDS011;18379;48.208;-1.518;2023-09-19T17:29:35;56.67;;;52.27;;
31808;SDS011;18379;48.208;-1.518;2023-09-19T17:34:36;55.73;;;51.43;;
31808;SDS011;18379;48.208;-1.518;2023-09-19T17:39:38;56.17;;;51.90;;
31808;SDS011;18379;48.208;-1.518;2023-09-19T17:44:39;54.97;;;50.70;;
31808;SDS011;18379;48.208;-1.518;2023-09-19T17:49:40;54.97;;;50.93;;
31808;SDS011;18379;48.208;-1.518;2023-09-19T17:54:43;55.73;;;51.43;;
31808;SDS011;18379;48.208;-1.518;2023-09-19T17:59:44;55.27;;;51.13;;
31808;SDS011;18379;48.208;-1.518;2023-09-19T18:04:45;55.87;;;51.47;;
31808;SDS011;18379;48.208;-1.518;2023-09-19T18:09:46;54.93;;;50.73;;
31808;SDS011;18379;48.208;-1.518;2023-09-19T18:14:47;55.37;;;51.33;;
31808;SDS011;18379;48.208;-1.518;2023-09-19T18:19:48;54.57;;;50.60;;
31808;SDS011;18379;48.208;-1.518;2023-09-19T18:24:50;54.53;;;50.63;;
31808;SDS011;18379;48.208;-1.518;2023-09-19T18:29:51;54.43;;;50.63;;
31808;SDS011;18379;48.208;-1.518;2023-09-19T18:34:53;54.20;;;50.30;;
31808;SDS011;18379;48.208;-1.518;2023-09-19T18:39:54;54.53;;;50.83;;
31808;SDS011;18379;48.208;-1.518;2023-09-19T18:44:55;55.00;;;50.93;;
31808;SDS011;18379;48.208;-1.518;2023-09-19T18:49:55;55.90;;;51.43;;
31808;SDS011;18379;48.208;-1.518;2023-09-19T18:54:56;54.10;;;49.90;;
31808;SDS011;18379;48.208;-1.518;2023-09-19T18:59:57;55.80;;;51.30;;
31808;SDS011;18379;48.208;-1.518;2023-09-19T19:04:58;54.77;;;50.73;;
31808;SDS011;18379;48.208;-1.518;2023-09-19T19:09:59;54.87;;;50.73;;
31808;SDS011;18379;48.208;-1.518;2023-09-19T19:15:01;55.20;;;50.20;;
31808;SDS011;18379;48.208;-1.518;2023-09-19T19:20:02;54.67;;;50.40;;
31808;SDS011;18379;48.208;-1.518;2023-09-19T19:25:06;54.87;;;50.33;;
31808;SDS011;18379;48.208;-1.518;2023-09-19T19:30:09;54.80;;;50.40;;
31808;SDS011;18379;48.208;-1.518;2023-09-19T19:35:11;53.90;;;49.83;;
31808;SDS011;18379;48.208;-1.518;2023-09-19T19:40:13;55.03;;;50.60;;
31808;SDS011;18379;48.208;-1.518;2023-09-19T19:45:14;53.97;;;50.07;;
31808;SDS011;18379;48.208;-1.518;2023-09-19T19:50:15;54.50;;;50.13;;
31808;SDS011;18379;48.208;-1.518;2023-09-19T19:55:17;54.30;;;50.13;;
31808;SDS011;18379;48.208;-1.518;2023-09-19T20:00:18;54.63;;;50.23;;
31808;SDS011;18379;48.208;-1.518;2023-09-19T20:05:20;55.07;;;50.93;;
31808;SDS011;18379;48.208;-1.518;2023-09-19T20:10:21;54.27;;;50.47;;
31808;SDS011;18379;48.208;-1.518;2023-09-19T20:15:22;53.97;;;49.87;;
31808;SDS011;18379;48.208;-1.518;2023-09-19T20:20:25;54.70;;;50.63;;
31808;SDS011;18379;48.208;-1.518;2023-09-19T20:25:27;54.70;;;50.30;;
31808;SDS011;18379;48.208;-1.518;2023-09-19T20:30:29;53.93;;;50.00;;
31808;SDS011;18379;48.208;-1.518;2023-09-19T20:35:29;56.03;;;51.67;;
31808;SDS011;18379;48.208;-1.518;2023-09-19T20:40:31;54.23;;;50.33;;
31808;SDS011;18379;48.208;-1.518;2023-09-19T20:45:33;54.50;;;50.07;;
31808;SDS011;18379;48.208;-1.518;2023-09-19T20:50:40;54.10;;;50.13;;
31808;SDS011;18379;48.208;-1.518;2023-09-19T20:55:41;54.97;;;50.63;;
31808;SDS011;18379;48.208;-1.518;2023-09-19T21:00:41;54.27;;;49.97;;
31808;SDS011;18379;48.208;-1.518;2023-09-19T21:05:42;54.33;;;49.97;;
31808;SDS011;18379;48.208;-1.518;2023-09-19T21:10:43;54.77;;;50.40;;
31808;SDS011;18379;48.208;-1.518;2023-09-19T21:15:43;54.50;;;50.27;;
31808;SDS011;18379;48.208;-1.518;2023-09-19T21:20:44;55.07;;;50.57;;
31808;SDS011;18379;48.208;-1.518;2023-09-19T21:25:53;54.77;;;50.43;;
31808;SDS011;18379;48.208;-1.518;2023-09-19T21:36:06;54.57;;;50.67;;
31808;SDS011;18379;48.208;-1.518;2023-09-19T21:41:19;54.63;;;50.30;;
31808;SDS011;18379;48.208;-1.518;2023-09-19T21:46:20;55.57;;;50.53;;
31808;SDS011;18379;48.208;-1.518;2023-09-19T21:51:21;55.30;;;51.03;;
31808;SDS011;18379;48.208;-1.518;2023-09-19T21:56:22;56.13;;;51.57;;
31808;SDS011;18379;48.208;-1.518;2023-09-19T22:01:23;54.67;;;50.20;;
31808;SDS011;18379;48.208;-1.518;2023-09-19T22:06:28;56.40;;;51.73;;
31808;SDS011;18379;48.208;-1.518;2023-09-19T22:11:29;55.13;;;51.03;;
31808;SDS011;18379;48.208;-1.518;2023-09-19T22:16:31;54.53;;;50.33;;
31808;SDS011;18379;48.208;-1.518;2023-09-19T22:21:32;54.47;;;50.00;;
31808;SDS011;18379;48.208;-1.518;2023-09-19T22:26:37;54.23;;;49.90;;
31808;SDS011;18379;48.208;-1.518;2023-09-19T22:31:39;54.73;;;50.17;;
31808;SDS011;18379;48.208;-1.518;2023-09-19T22:36:42;54.43;;;50.13;;
31808;SDS011;18379;48.208;-1.518;2023-09-19T22:41:44;53.43;;;49.53;;
31808;SDS011;18379;48.208;-1.518;2023-09-19T22:46:45;55.57;;;50.63;;
31808;SDS011;18379;48.208;-1.518;2023-09-19T22:51:48;54.07;;;50.07;;
31808;SDS011;18379;48.208;-1.518;2023-09-19T22:56:54;54.33;;;49.77;;
31808;SDS011;18379;48.208;-1.518;2023-09-19T23:01:55;54.90;;;50.57;;
31808;SDS011;18379;48.208;-1.518;2023-09-19T23:06:57;54.47;;;50.43;;
31808;SDS011;18379;48.208;-1.518;2023-09-19T23:12:05;56.17;;;51.20;;
31808;SDS011;18379;48.208;-1.518;2023-09-19T23:17:06;54.90;;;50.47;;
31808;SDS011;18379;48.208;-1.518;2023-09-19T23:22:21;54.67;;;50.13;;
31808;SDS011;18379;48.208;-1.518;2023-09-19T23:27:23;54.80;;;50.10;;
31808;SDS011;18379;48.208;-1.518;2023-09-19T23:32:27;55.97;;;51.27;;
31808;SDS011;18379;48.208;-1.518;2023-09-19T23:37:28;55.00;;;50.47;;
31808;SDS011;18379;48.208;-1.518;2023-09-19T23:42:29;54.90;;;50.17;;
31808;SDS011;18379;48.208;-1.518;2023-09-19T23:47:31;55.00;;;50.57;;
31808;SDS011;18379;48.208;-1.518;2023-09-19T23:52:31;54.57;;;50.27;;
31808;SDS011;18379;48.208;-1.518;2023-09-19T23:57:32;54.97;;;50.63;;
